createdAt,value
2023-12-27T00:01:07.655Z,14.50
2023-12-27T00:03:49.613Z,15.10
2023-12-27T00:06:19.826Z,12.10
2023-12-27T00:08:48.613Z,8.50
2023-12-27T00:11:19.241Z,8.60
2023-12-27T00:13:47.944Z,12.20
2023-12-27T00:16:16.241Z,10.90
2023-12-27T00:18:44.696Z,11.70
2023-12-27T00:21:14.695Z,9.60
2023-12-27T00:23:43.204Z,12.40
2023-12-27T00:26:11.937Z,9.10
2023-12-27T00:28:41.317Z,11.80
2023-12-27T00:31:09.848Z,12.10
2023-12-27T00:33:38.738Z,9.10
2023-12-27T00:36:09.251Z,10.10
2023-12-27T00:38:39.296Z,11.70
2023-12-27T00:41:08.717Z,9.80
2023-12-27T00:43:37.011Z,13.80
2023-12-27T00:46:07.790Z,8.80
2023-12-27T00:48:36.880Z,8.60
2023-12-27T00:51:06.911Z,7.60
2023-12-27T00:53:35.297Z,10.60
2023-12-27T00:56:03.637Z,11.60
2023-12-27T00:58:32.077Z,8.10
2023-12-27T01:01:00.464Z,11.90
2023-12-27T01:03:29.068Z,10.10
2023-12-27T01:05:57.833Z,9.60
2023-12-27T01:08:26.601Z,10.70
2023-12-27T01:10:55.231Z,13.00
2023-12-27T01:13:23.557Z,10.20
2023-12-27T01:15:52.002Z,12.10
2023-12-27T01:18:21.005Z,10.20
2023-12-27T01:20:50.330Z,12.40
2023-12-27T01:23:18.716Z,12.00
2023-12-27T01:25:47.093Z,11.80
2023-12-27T01:28:15.984Z,13.60
2023-12-27T01:30:44.589Z,11.50
2023-12-27T01:33:13.580Z,12.20
2023-12-27T01:35:42.049Z,12.20
2023-12-27T01:38:10.363Z,12.20
2023-12-27T01:40:38.697Z,11.50
2023-12-27T01:43:07.146Z,10.00
2023-12-27T01:45:35.579Z,13.40
2023-12-27T01:48:05.245Z,13.70
2023-12-27T01:50:33.980Z,11.70
2023-12-27T01:53:03.682Z,11.60
2023-12-27T01:55:33.610Z,12.20
2023-12-27T01:58:03.300Z,13.30
2023-12-27T02:00:31.859Z,16.10
2023-12-27T02:03:00.552Z,15.30
2023-12-27T02:05:29.309Z,12.10
2023-12-27T02:07:58.550Z,16.60
2023-12-27T02:10:28.680Z,17.80
2023-12-27T02:12:57.050Z,11.80
2023-12-27T02:15:25.490Z,14.80
2023-12-27T02:17:54.272Z,21.80
2023-12-27T02:20:23.782Z,22.50
2023-12-27T02:22:54.560Z,18.40
2023-12-27T02:25:23.663Z,16.40
2023-12-27T02:27:52.032Z,16.20
2023-12-27T02:30:22.765Z,15.00
2023-12-27T02:32:52.903Z,16.00
2023-12-27T02:35:21.792Z,16.40
2023-12-27T02:37:50.301Z,16.10
2023-12-27T02:40:18.863Z,17.00
2023-12-27T02:42:48.243Z,16.00
2023-12-27T02:45:16.890Z,13.00
2023-12-27T02:47:45.928Z,16.10
2023-12-27T02:50:14.721Z,13.90
2023-12-27T02:52:43.211Z,16.50
2023-12-27T02:55:11.892Z,16.30
2023-12-27T02:57:40.457Z,17.30
2023-12-27T03:00:10.100Z,18.30
2023-12-27T03:02:38.583Z,19.40
2023-12-27T03:05:07.567Z,20.00
2023-12-27T03:07:35.879Z,20.70
2023-12-27T03:10:05.274Z,16.80
2023-12-27T03:12:34.333Z,17.10
2023-12-27T03:15:02.806Z,16.20
2023-12-27T03:17:31.501Z,18.60
2023-12-27T03:20:00.085Z,17.00
2023-12-27T03:22:29.195Z,16.20
2023-12-27T03:24:57.746Z,18.40
2023-12-27T03:27:26.164Z,19.20
2023-12-27T03:29:54.886Z,17.30
2023-12-27T03:32:25.885Z,17.60
2023-12-27T03:34:54.238Z,17.20
2023-12-27T03:37:22.633Z,17.10
2023-12-27T03:39:52.837Z,18.20
2023-12-27T03:42:21.480Z,30.60
2023-12-27T03:44:54.610Z,22.20
2023-12-27T03:47:24.351Z,20.20
2023-12-27T03:49:52.839Z,24.20
2023-12-27T03:52:21.462Z,18.30
2023-12-27T03:54:50.685Z,19.50
2023-12-27T03:57:19.112Z,13.10
2023-12-27T03:59:47.590Z,17.50
2023-12-27T04:02:17.149Z,19.80
2023-12-27T04:04:48.253Z,14.50
2023-12-27T04:07:16.777Z,18.70
2023-12-27T04:09:45.459Z,18.10
2023-12-27T04:12:13.928Z,17.80
2023-12-27T04:14:42.177Z,17.00
2023-12-27T04:17:10.490Z,16.70
2023-12-27T04:19:38.920Z,22.10
2023-12-27T04:22:09.746Z,19.80
2023-12-27T04:24:38.207Z,20.70
2023-12-27T04:27:06.797Z,22.90
2023-12-27T04:29:35.253Z,25.20
2023-12-27T04:32:03.837Z,24.30
2023-12-27T04:34:32.160Z,29.90
2023-12-27T04:37:02.042Z,23.10
2023-12-27T04:39:30.739Z,17.90
2023-12-27T04:41:59.232Z,31.10
2023-12-27T04:44:27.780Z,17.10
2023-12-27T04:46:58.012Z,21.50
2023-12-27T04:49:26.602Z,21.10
2023-12-27T04:51:55.178Z,18.60
2023-12-27T04:54:24.716Z,17.60
2023-12-27T04:56:56.597Z,16.50
2023-12-27T04:59:25.342Z,21.90
2023-12-27T05:01:54.639Z,20.30
2023-12-27T05:04:24.729Z,20.50
2023-12-27T05:06:53.336Z,24.50
2023-12-27T05:09:21.841Z,23.50
2023-12-27T05:11:50.931Z,20.10
2023-12-27T05:14:19.096Z,16.30
2023-12-27T05:16:48.183Z,14.30
2023-12-27T05:19:18.194Z,14.80
2023-12-27T05:24:16.405Z,20.00
2023-12-27T05:26:45.175Z,14.10
2023-12-27T05:29:13.754Z,17.40
2023-12-27T05:31:42.146Z,21.70
2023-12-27T05:34:10.768Z,17.10
2023-12-27T05:36:39.346Z,18.10
2023-12-27T05:39:07.941Z,18.80
2023-12-27T05:41:36.794Z,20.10
2023-12-27T05:44:05.258Z,20.20
2023-12-27T05:46:36.838Z,14.00
2023-12-27T05:49:05.430Z,20.20
2023-12-27T05:51:34.821Z,21.70
2023-12-27T05:54:04.525Z,19.10
2023-12-27T05:56:33.708Z,20.00
2023-12-27T05:59:02.284Z,21.30
2023-12-27T06:01:30.808Z,19.00
2023-12-27T06:04:00.756Z,21.00
2023-12-27T06:08:57.678Z,17.40
2023-12-27T06:11:26.341Z,16.50
2023-12-27T06:13:54.817Z,23.60
2023-12-27T06:16:23.093Z,21.70
2023-12-27T06:18:56.055Z,31.80
2023-12-27T06:21:24.798Z,26.30
2023-12-27T06:23:53.179Z,35.80
2023-12-27T06:26:22.039Z,29.80
2023-12-27T06:28:50.423Z,22.80
2023-12-27T06:31:19.041Z,37.40
2023-12-27T06:33:47.618Z,20.60
2023-12-27T06:36:16.284Z,17.90
2023-12-27T06:38:47.733Z,16.20
2023-12-27T06:41:17.837Z,21.70
2023-12-27T06:43:46.620Z,13.30
2023-12-27T06:46:14.899Z,18.20
2023-12-27T06:48:43.458Z,14.00
2023-12-27T06:51:15.093Z,14.90
2023-12-27T06:53:43.518Z,14.70
2023-12-27T06:56:12.317Z,14.40
2023-12-27T06:58:40.531Z,13.70
2023-12-27T07:01:11.320Z,22.40
2023-12-27T07:03:39.997Z,17.80
2023-12-27T07:06:09.295Z,14.70
2023-12-27T07:08:37.890Z,14.80
2023-12-27T07:11:06.386Z,12.90
2023-12-27T07:13:34.966Z,15.70
2023-12-27T07:16:03.815Z,12.70
2023-12-27T07:18:32.409Z,13.10
2023-12-27T07:21:01.061Z,14.50
2023-12-27T07:23:29.494Z,16.40
2023-12-27T07:25:58.286Z,16.70
2023-12-27T07:28:27.551Z,24.10
2023-12-27T07:30:56.044Z,14.20
2023-12-27T07:33:24.788Z,11.90
2023-12-27T07:35:53.767Z,14.30
2023-12-27T07:38:22.447Z,13.50
2023-12-27T07:40:50.805Z,11.60
2023-12-27T07:43:22.058Z,14.80
2023-12-27T07:45:50.430Z,14.80
2023-12-27T07:48:19.359Z,11.20
2023-12-27T07:50:47.917Z,14.20
2023-12-27T07:53:16.389Z,13.10
2023-12-27T07:55:44.786Z,12.20
2023-12-27T07:58:13.244Z,14.80
2023-12-27T08:00:42.083Z,12.70
2023-12-27T08:03:10.732Z,12.00
2023-12-27T08:05:39.944Z,13.90
2023-12-27T08:08:08.495Z,13.00
2023-12-27T08:10:37.631Z,12.70
2023-12-27T08:13:09.470Z,13.10
2023-12-27T08:15:38.183Z,12.90
2023-12-27T08:18:06.858Z,12.80
2023-12-27T08:20:35.636Z,14.40
2023-12-27T08:23:04.569Z,15.30
2023-12-27T08:25:32.994Z,11.40
2023-12-27T08:28:02.493Z,12.10
2023-12-27T08:30:31.040Z,12.30
2023-12-27T08:33:01.627Z,13.80
2023-12-27T08:35:30.140Z,12.10
2023-12-27T08:37:58.819Z,14.30
2023-12-27T08:40:27.360Z,13.40
2023-12-27T08:42:56.604Z,11.10
2023-12-27T08:45:25.303Z,13.30
2023-12-27T08:47:53.669Z,12.70
2023-12-27T08:50:22.418Z,11.30
2023-12-27T08:52:50.793Z,14.30
2023-12-27T08:55:19.168Z,9.70
2023-12-27T08:57:47.711Z,13.30
2023-12-27T09:00:16.787Z,10.60
2023-12-27T09:02:46.277Z,10.30
2023-12-27T09:05:14.622Z,11.00
2023-12-27T09:07:43.106Z,11.10
2023-12-27T09:10:12.248Z,10.00
2023-12-27T09:12:40.864Z,10.90
2023-12-27T09:15:10.106Z,11.50
2023-12-27T09:20:09.714Z,10.40
2023-12-27T09:22:38.273Z,14.00
2023-12-27T09:25:07.313Z,11.70
2023-12-27T09:30:05.307Z,11.10
2023-12-27T09:32:33.902Z,11.10
2023-12-27T09:35:04.215Z,9.10
2023-12-27T09:37:32.992Z,9.50
2023-12-27T09:40:01.682Z,11.80
2023-12-27T09:42:34.420Z,9.40
2023-12-27T09:45:09.803Z,10.40
2023-12-27T09:47:41.292Z,12.00
2023-12-27T09:50:10.458Z,11.80
2023-12-27T09:52:41.156Z,12.90
2023-12-27T09:55:10.001Z,12.20
2023-12-27T09:57:39.099Z,9.90
2023-12-27T10:00:11.141Z,10.70
2023-12-27T10:02:43.522Z,10.50
2023-12-27T10:05:27.989Z,10.20
2023-12-27T10:07:58.277Z,9.80
2023-12-27T10:10:28.757Z,7.70
2023-12-27T10:13:04.029Z,10.10
2023-12-27T10:15:32.781Z,10.50
2023-12-27T10:18:01.544Z,13.40
2023-12-27T10:23:12.021Z,11.40
2023-12-27T10:25:41.746Z,10.40
2023-12-27T10:28:10.610Z,10.50
2023-12-27T10:33:08.013Z,10.40
2023-12-27T10:38:08.597Z,11.40
2023-12-27T10:40:41.091Z,12.80
2023-12-27T10:43:10.290Z,12.40
2023-12-27T10:45:39.467Z,11.00
2023-12-27T10:48:11.417Z,10.20
2023-12-27T10:50:40.769Z,9.90
2023-12-27T10:53:10.679Z,11.10
2023-12-27T10:55:39.796Z,9.80
2023-12-27T10:58:17.389Z,10.90
2023-12-27T11:00:48.026Z,13.90
2023-12-27T11:03:19.978Z,11.00
2023-12-27T11:05:49.691Z,9.10
2023-12-27T11:08:21.855Z,9.70
2023-12-27T11:10:50.991Z,10.90
2023-12-27T11:13:25.639Z,17.10
2023-12-27T11:15:57.338Z,11.50
2023-12-27T11:18:26.828Z,16.30
2023-12-27T11:20:58.393Z,15.60
2023-12-27T11:23:27.367Z,10.10
2023-12-27T11:25:57.745Z,11.70
2023-12-27T11:28:26.663Z,9.60
2023-12-27T11:30:56.295Z,9.10
2023-12-27T11:33:28.369Z,10.50
2023-12-27T11:35:59.381Z,10.50
2023-12-27T11:38:27.982Z,12.20
2023-12-27T11:41:02.023Z,18.50
2023-12-27T11:43:49.329Z,10.10
2023-12-27T11:46:26.870Z,9.40
2023-12-27T11:48:56.045Z,11.60
2023-12-27T11:51:35.819Z,73.70
2023-12-27T11:54:07.675Z,29.80
2023-12-27T11:56:40.159Z,9.70
2023-12-27T11:59:12.693Z,14.50
2023-12-27T12:01:43.017Z,15.00
2023-12-27T12:04:38.952Z,14.20
2023-12-27T12:07:19.585Z,15.90
2023-12-27T12:09:48.405Z,17.90
2023-12-27T12:12:16.847Z,20.90
2023-12-27T12:14:46.275Z,23.90
2023-12-27T12:17:15.348Z,13.10
2023-12-27T12:19:43.932Z,26.80
2023-12-27T12:22:15.322Z,21.10
2023-12-27T12:24:47.799Z,34.20
2023-12-27T12:27:17.994Z,25.80
2023-12-27T12:29:46.599Z,30.20
2023-12-27T12:32:16.459Z,20.60
2023-12-27T12:34:45.508Z,13.90
2023-12-27T12:37:16.101Z,21.90
2023-12-27T12:39:48.055Z,33.70
2023-12-27T12:42:16.762Z,12.90
2023-12-27T12:44:46.261Z,11.00
2023-12-27T12:47:16.300Z,15.90
2023-12-27T12:49:44.983Z,12.40
2023-12-27T12:52:13.359Z,16.30
2023-12-27T12:54:42.165Z,13.10
2023-12-27T12:57:10.905Z,10.60
2023-12-27T12:59:42.784Z,11.00
2023-12-27T13:02:11.880Z,15.70
2023-12-27T13:04:40.623Z,18.30
2023-12-27T13:07:09.237Z,13.70
2023-12-27T13:10:01.819Z,19.10
2023-12-27T13:12:31.723Z,18.00
2023-12-27T13:15:00.251Z,18.90
2023-12-27T13:17:29.020Z,22.80
2023-12-27T13:19:57.741Z,15.70
2023-12-27T13:22:26.196Z,15.50
2023-12-27T13:24:55.039Z,23.10
2023-12-27T13:27:23.510Z,23.90
2023-12-27T13:29:51.998Z,9.60
2023-12-27T13:32:21.004Z,10.10
2023-12-27T13:34:49.413Z,10.70
2023-12-27T13:37:20.489Z,9.30
2023-12-27T13:39:49.571Z,11.10
2023-12-27T13:44:46.263Z,10.40
2023-12-27T13:47:14.631Z,10.40
2023-12-27T13:49:44.841Z,8.50
2023-12-27T13:52:13.734Z,9.70
2023-12-27T13:54:42.356Z,12.90
2023-12-27T13:57:10.706Z,28.70
2023-12-27T13:59:41.044Z,15.60
2023-12-27T14:02:09.603Z,12.70
2023-12-27T14:04:38.334Z,12.20
2023-12-27T14:07:06.717Z,11.90
2023-12-27T14:09:35.930Z,12.50
2023-12-27T14:14:33.141Z,12.20
2023-12-27T14:17:01.544Z,13.50
2023-12-27T14:19:33.076Z,18.60
2023-12-27T14:22:01.868Z,37.50
2023-12-27T14:24:32.957Z,44.30
2023-12-27T14:27:01.315Z,17.30
2023-12-27T14:29:30.597Z,20.20
2023-12-27T14:31:59.169Z,58.70
2023-12-27T14:34:27.954Z,57.00
2023-12-27T14:36:56.446Z,48.80
2023-12-27T14:39:27.386Z,64.00
2023-12-27T14:41:56.169Z,57.80
2023-12-27T14:44:24.651Z,24.70
2023-12-27T14:46:54.931Z,16.50
2023-12-27T14:49:23.385Z,11.80
2023-12-27T14:51:51.948Z,15.20
2023-12-27T14:54:24.068Z,12.00
2023-12-27T14:56:54.224Z,51.10
2023-12-27T14:59:24.104Z,50.60
2023-12-27T15:01:54.333Z,34.90
2023-12-27T15:04:24.572Z,21.10
2023-12-27T15:06:53.199Z,19.10
2023-12-27T15:09:24.220Z,23.90
2023-12-27T15:11:53.001Z,26.50
2023-12-27T15:14:22.115Z,33.50
2023-12-27T15:16:51.943Z,53.60
2023-12-27T15:21:49.182Z,33.90
2023-12-27T15:24:17.787Z,30.90
2023-12-27T15:26:46.246Z,35.60
2023-12-27T15:29:15.549Z,50.00
2023-12-27T15:31:45.413Z,38.50
2023-12-27T15:36:43.014Z,50.60
2023-12-27T15:39:11.484Z,48.10
2023-12-27T15:41:39.902Z,37.00
2023-12-27T15:44:08.903Z,25.10
2023-12-27T15:46:37.487Z,25.50
2023-12-27T15:49:07.706Z,24.40
2023-12-27T15:51:37.407Z,26.10
2023-12-27T15:54:07.855Z,25.70
2023-12-27T15:56:46.416Z,31.80
2023-12-27T15:59:15.169Z,28.80
2023-12-27T16:01:46.553Z,34.70
2023-12-27T16:04:19.402Z,24.20
2023-12-27T16:06:48.856Z,27.50
2023-12-27T16:09:18.225Z,22.90
2023-12-27T16:11:46.757Z,30.30
2023-12-27T16:14:15.133Z,48.50
2023-12-27T16:16:44.274Z,40.50
2023-12-27T16:19:14.035Z,52.50
2023-12-27T16:21:43.820Z,50.90
2023-12-27T16:24:12.580Z,35.40
2023-12-27T16:26:40.940Z,33.70
2023-12-27T16:29:09.307Z,45.90
2023-12-27T16:31:37.995Z,52.80
2023-12-27T16:34:06.877Z,38.90
2023-12-27T16:36:35.395Z,40.20
2023-12-27T16:39:03.911Z,41.60
2023-12-27T16:41:32.529Z,43.10
2023-12-27T16:44:01.160Z,47.90
2023-12-27T16:46:29.696Z,41.60
2023-12-27T16:49:00.145Z,45.40
2023-12-27T16:51:30.328Z,53.10
2023-12-27T16:53:59.769Z,57.80
2023-12-27T16:56:29.270Z,50.10
2023-12-27T16:58:57.708Z,47.00
2023-12-27T17:01:26.136Z,41.60
2023-12-27T17:03:54.640Z,39.20
2023-12-27T17:06:24.446Z,40.20
2023-12-27T17:08:52.985Z,47.30
2023-12-27T17:11:21.375Z,47.60
2023-12-27T17:13:50.779Z,39.10
2023-12-27T17:16:19.375Z,61.00
2023-12-27T17:18:47.911Z,58.20
2023-12-27T17:21:19.059Z,64.60
2023-12-27T17:23:49.009Z,51.80
2023-12-27T17:26:17.456Z,35.80
2023-12-27T17:28:45.976Z,59.40
2023-12-27T17:31:14.439Z,33.10
2023-12-27T17:33:43.409Z,27.80
2023-12-27T17:36:12.145Z,40.80
2023-12-27T17:38:40.622Z,48.90
2023-12-27T17:41:09.390Z,30.60
2023-12-27T17:43:41.514Z,56.40
2023-12-27T17:46:13.532Z,44.00
2023-12-27T17:48:45.735Z,26.60
2023-12-27T17:51:14.303Z,26.70
2023-12-27T17:53:43.389Z,23.40
2023-12-27T17:56:11.959Z,25.00
2023-12-27T17:58:40.773Z,22.20
2023-12-27T18:01:09.519Z,18.70
2023-12-27T18:03:38.253Z,26.40
2023-12-27T18:06:08.356Z,30.00
2023-12-27T18:08:36.810Z,81.60
2023-12-27T18:11:05.355Z,51.10
2023-12-27T18:13:35.142Z,45.10
2023-12-27T18:16:05.738Z,52.80
2023-12-27T18:18:34.490Z,130.00
2023-12-27T18:21:05.591Z,76.60
2023-12-27T18:23:37.423Z,188.10
2023-12-27T18:26:05.802Z,75.50
2023-12-27T18:28:34.254Z,54.00
2023-12-27T18:31:02.633Z,38.80
2023-12-27T18:33:31.993Z,30.20
2023-12-27T18:36:01.152Z,33.20
2023-12-27T18:38:29.647Z,43.30
2023-12-27T18:40:58.118Z,92.20
2023-12-27T18:43:26.428Z,105.90
2023-12-27T18:45:57.167Z,324.80
2023-12-27T18:48:25.751Z,230.80
2023-12-27T18:50:54.330Z,154.50
2023-12-27T18:53:22.785Z,116.90
2023-12-27T18:55:51.153Z,130.40
2023-12-27T18:58:20.152Z,117.10
2023-12-27T19:00:49.133Z,87.00
2023-12-27T19:03:18.136Z,61.50
2023-12-27T19:05:48.215Z,43.20
2023-12-27T19:08:16.742Z,20.40
2023-12-27T19:10:45.737Z,18.40
2023-12-27T19:13:14.123Z,19.40
2023-12-27T19:15:42.495Z,17.80
2023-12-27T19:18:12.723Z,14.90
2023-12-27T19:20:41.507Z,19.10
2023-12-27T19:23:10.066Z,15.70
2023-12-27T19:25:39.394Z,45.20
2023-12-27T19:28:07.866Z,46.50
2023-12-27T19:30:36.459Z,50.10
2023-12-27T19:33:05.847Z,49.00
2023-12-27T19:35:34.538Z,32.70
2023-12-27T19:38:03.122Z,30.00
2023-12-27T19:40:31.604Z,30.30
2023-12-27T19:43:00.568Z,31.30
2023-12-27T19:45:29.626Z,41.70
2023-12-27T19:47:58.595Z,24.90
2023-12-27T19:50:27.368Z,22.50
2023-12-27T19:52:55.645Z,24.30
2023-12-27T19:55:24.234Z,24.00
2023-12-27T19:57:52.656Z,29.70
2023-12-27T20:00:21.300Z,31.00
2023-12-27T20:02:50.092Z,31.90
2023-12-27T20:05:18.640Z,30.40
2023-12-27T20:07:46.988Z,34.70
2023-12-27T20:10:15.535Z,38.20
2023-12-27T20:12:44.083Z,38.00
2023-12-27T20:15:12.857Z,30.80
2023-12-27T20:17:41.386Z,25.30
2023-12-27T20:20:10.384Z,27.50
2023-12-27T20:22:38.871Z,27.50
2023-12-27T20:25:08.081Z,30.60
2023-12-27T20:27:36.876Z,32.10
2023-12-27T20:30:06.622Z,23.20
2023-12-27T20:32:35.782Z,35.10
2023-12-27T20:35:05.369Z,34.10
2023-12-27T20:37:33.900Z,34.40
2023-12-27T20:40:02.547Z,28.00
2023-12-27T20:42:31.173Z,40.10
2023-12-27T20:44:59.906Z,45.00
2023-12-27T20:47:28.412Z,21.70
2023-12-27T20:49:57.138Z,16.50
2023-12-27T20:52:26.109Z,17.10
2023-12-27T20:54:55.276Z,14.80
2023-12-27T20:57:24.413Z,15.70
2023-12-27T20:59:52.972Z,14.10
2023-12-27T21:02:21.424Z,16.10
2023-12-27T21:04:50.000Z,22.50
2023-12-27T21:07:19.225Z,21.80
2023-12-27T21:09:47.861Z,15.30
2023-12-27T21:12:16.802Z,19.80
2023-12-27T21:14:46.383Z,30.10
2023-12-27T21:17:15.499Z,39.20
2023-12-27T21:19:44.713Z,36.90
2023-12-27T21:22:13.502Z,31.70
2023-12-27T21:24:42.082Z,34.50
2023-12-27T21:27:10.761Z,29.70
2023-12-27T21:29:39.448Z,30.00
2023-12-27T21:32:07.914Z,26.70
2023-12-27T21:34:36.334Z,32.20
2023-12-27T21:37:05.564Z,59.60
2023-12-27T21:39:34.654Z,70.90
2023-12-27T21:42:04.405Z,87.70
2023-12-27T21:44:34.215Z,42.30
2023-12-27T21:47:02.988Z,47.20
2023-12-27T21:49:31.519Z,52.50
2023-12-27T21:52:00.020Z,41.10
2023-12-27T21:54:28.677Z,51.80
2023-12-27T21:56:57.356Z,39.60
2023-12-27T21:59:25.799Z,34.80
2023-12-27T22:01:54.366Z,36.50
2023-12-27T22:04:22.737Z,46.60
2023-12-27T22:06:51.345Z,38.70
2023-12-27T22:09:20.074Z,29.30
2023-12-27T22:11:48.634Z,23.00
2023-12-27T22:14:18.437Z,22.80
2023-12-27T22:16:50.126Z,15.20
2023-12-27T22:19:18.936Z,24.30
2023-12-27T22:21:50.533Z,35.60
2023-12-27T22:24:19.045Z,59.70
2023-12-27T22:26:47.521Z,46.80
2023-12-27T22:29:17.124Z,35.30
2023-12-27T22:31:45.687Z,29.50
2023-12-27T22:34:15.813Z,32.20
2023-12-27T22:36:44.470Z,31.00
2023-12-27T22:39:13.129Z,20.30
2023-12-27T22:41:41.575Z,30.50
2023-12-27T22:44:10.142Z,24.40
2023-12-27T22:46:38.758Z,24.70
2023-12-27T22:49:08.373Z,20.80
2023-12-27T22:51:37.654Z,31.20
2023-12-27T22:54:06.636Z,46.60
2023-12-27T22:56:35.221Z,36.80
2023-12-27T22:59:03.606Z,37.60
2023-12-27T23:01:32.330Z,38.60
2023-12-27T23:04:00.910Z,49.40
2023-12-27T23:06:29.433Z,24.40
2023-12-27T23:09:00.137Z,27.40
2023-12-27T23:11:28.462Z,21.60
2023-12-27T23:13:56.916Z,20.20
2023-12-27T23:16:25.834Z,19.10
2023-12-27T23:18:54.542Z,21.80
2023-12-27T23:21:23.102Z,104.60
2023-12-27T23:23:51.688Z,56.20
2023-12-27T23:26:20.064Z,64.80
2023-12-27T23:28:49.875Z,35.80
2023-12-27T23:31:18.359Z,36.10
2023-12-27T23:33:47.367Z,27.30
2023-12-27T23:36:15.852Z,23.70
2023-12-27T23:38:44.137Z,28.30
2023-12-27T23:41:12.580Z,18.20
2023-12-27T23:43:42.956Z,28.20
2023-12-27T23:46:11.389Z,19.40
2023-12-27T23:48:39.998Z,118.50
2023-12-27T23:51:08.870Z,50.70
2023-12-27T23:53:37.566Z,28.40
2023-12-27T23:56:06.252Z,16.60
2023-12-27T23:58:34.713Z,16.90
